createdAt,value
2018-06-02T00:02:14.973Z,20.60
2018-06-02T00:04:43.291Z,20.50
2018-06-02T00:07:11.544Z,20.50
2018-06-02T00:09:39.801Z,20.50
2018-06-02T00:12:08.046Z,20.50
2018-06-02T00:14:36.685Z,20.50
2018-06-02T00:17:04.941Z,20.60
2018-06-02T00:19:33.180Z,20.50
2018-06-02T00:22:01.462Z,20.50
2018-06-02T00:24:30.484Z,20.40
2018-06-02T00:26:58.738Z,20.40
2018-06-02T00:29:27.015Z,20.40
2018-06-02T00:31:55.261Z,20.40
2018-06-02T00:34:23.521Z,20.30
2018-06-02T00:36:51.847Z,20.30
2018-06-02T00:39:20.095Z,20.30
2018-06-02T00:41:48.336Z,20.30
2018-06-02T00:44:16.603Z,20.20
2018-06-02T00:46:44.853Z,20.10
2018-06-02T00:49:13.102Z,20.00
2018-06-02T00:51:41.732Z,20.00
2018-06-02T00:54:09.984Z,20.00
2018-06-02T00:56:38.234Z,20.10
2018-06-02T00:59:06.892Z,20.10
2018-06-02T01:01:35.144Z,20.00
2018-06-02T01:04:03.389Z,20.10
2018-06-02T01:06:32.421Z,19.90
2018-06-02T01:09:00.667Z,19.90
2018-06-02T01:11:29.677Z,19.90
2018-06-02T01:13:58.711Z,19.90
2018-06-02T01:16:26.957Z,19.90
2018-06-02T01:18:55.204Z,19.80
2018-06-02T01:21:24.648Z,19.70
2018-06-02T01:23:52.896Z,19.70
2018-06-02T01:26:21.158Z,19.60
2018-06-02T01:28:49.433Z,19.70
2018-06-02T01:31:17.674Z,19.60
2018-06-02T01:33:45.920Z,19.50
2018-06-02T01:36:14.200Z,19.50
2018-06-02T01:38:42.461Z,19.40
2018-06-02T01:41:11.469Z,19.30
2018-06-02T01:43:40.182Z,19.20
2018-06-02T01:46:08.432Z,19.20
2018-06-02T01:48:36.685Z,19.20
2018-06-02T01:51:04.968Z,19.10
2018-06-02T01:53:34.264Z,19.00
2018-06-02T01:56:03.289Z,18.90
2018-06-02T01:58:31.560Z,18.90
2018-06-02T02:00:59.807Z,18.90
2018-06-02T02:03:28.054Z,18.90
2018-06-02T02:05:56.523Z,18.90
2018-06-02T02:08:24.771Z,18.90
2018-06-02T02:10:53.013Z,18.90
2018-06-02T02:13:21.293Z,18.80
2018-06-02T02:15:50.318Z,19.00
2018-06-02T02:18:18.560Z,18.90
2018-06-02T02:20:46.837Z,18.90
2018-06-02T02:23:15.086Z,18.90
2018-06-02T02:25:43.332Z,18.90
2018-06-02T02:28:12.211Z,18.90
2018-06-02T02:30:40.457Z,18.90
2018-06-02T02:33:08.804Z,18.80
2018-06-02T02:35:37.313Z,18.80
2018-06-02T02:38:06.360Z,18.70
2018-06-02T02:40:34.724Z,18.70
2018-06-02T02:43:03.112Z,18.70
2018-06-02T02:45:31.450Z,18.60
2018-06-02T02:48:00.477Z,18.60
2018-06-02T02:50:29.237Z,18.60
2018-06-02T02:52:57.492Z,18.70
2018-06-02T02:55:26.200Z,18.70
2018-06-02T02:57:55.584Z,18.60
2018-06-02T03:00:23.838Z,18.60
2018-06-02T03:02:52.080Z,18.60
2018-06-02T03:05:20.567Z,18.60
2018-06-02T03:07:49.745Z,18.40
2018-06-02T03:10:17.992Z,18.40
2018-06-02T03:12:46.745Z,18.40
2018-06-02T03:15:15.004Z,18.30
2018-06-02T03:17:43.257Z,18.40
2018-06-02T03:20:11.532Z,18.30
2018-06-02T03:22:40.561Z,18.30
2018-06-02T03:25:08.816Z,18.20
2018-06-02T03:27:37.089Z,18.30
2018-06-02T03:30:05.425Z,18.20
2018-06-02T03:32:33.654Z,18.20
2018-06-02T03:35:02.161Z,18.30
2018-06-02T03:37:30.396Z,18.30
2018-06-02T03:39:58.657Z,18.20
2018-06-02T03:42:26.926Z,18.30
2018-06-02T03:44:55.185Z,18.30
2018-06-02T03:47:23.424Z,18.20
2018-06-02T03:49:51.807Z,18.20
2018-06-02T03:52:20.052Z,18.10
2018-06-02T03:54:48.314Z,18.10
2018-06-02T03:57:16.947Z,18.10
2018-06-02T03:59:45.184Z,18.10
2018-06-02T04:02:13.449Z,18.20
2018-06-02T04:04:41.836Z,18.20
2018-06-02T04:07:10.071Z,18.20
2018-06-02T04:09:38.330Z,18.20
2018-06-02T04:12:06.597Z,18.20
2018-06-02T04:14:34.844Z,18.30
2018-06-02T04:17:03.093Z,18.30
2018-06-02T04:19:32.065Z,18.30
2018-06-02T04:22:00.316Z,18.30
2018-06-02T04:24:28.569Z,18.40
2018-06-02T04:26:56.844Z,18.40
2018-06-02T04:29:25.866Z,18.50
2018-06-02T04:31:54.117Z,18.50
2018-06-02T04:34:22.392Z,18.50
2018-06-02T04:36:50.632Z,18.50
2018-06-02T04:39:19.025Z,18.50
2018-06-02T04:41:47.776Z,18.50
2018-06-02T04:44:16.031Z,18.50
2018-06-02T04:46:44.277Z,18.50
2018-06-02T04:49:12.565Z,18.50
2018-06-02T04:51:41.572Z,18.60
2018-06-02T04:54:09.825Z,18.60
2018-06-02T04:56:38.097Z,18.60
2018-06-02T04:59:06.458Z,18.60
2018-06-02T05:01:34.708Z,18.60
2018-06-02T05:04:03.493Z,18.70
2018-06-02T05:06:31.733Z,18.70
2018-06-02T05:08:59.977Z,18.90
2018-06-02T05:11:28.251Z,18.80
2018-06-02T05:13:56.513Z,18.80
2018-06-02T05:16:24.744Z,18.90
2018-06-02T05:18:53.021Z,18.90
2018-06-02T05:21:21.277Z,18.90
2018-06-02T05:23:49.532Z,18.90
2018-06-02T05:26:17.996Z,18.90
2018-06-02T05:28:46.252Z,18.90
2018-06-02T05:31:14.497Z,18.90
2018-06-02T05:33:42.778Z,18.90
2018-06-02T05:36:11.793Z,19.00
2018-06-02T05:38:40.036Z,19.00
2018-06-02T05:41:08.349Z,19.00
2018-06-02T05:43:37.378Z,19.00
2018-06-02T05:46:06.793Z,19.00
2018-06-02T05:48:35.272Z,19.10
2018-06-02T05:51:03.523Z,19.10
2018-06-02T05:53:31.784Z,19.20
2018-06-02T05:56:00.100Z,19.20
2018-06-02T05:58:28.354Z,19.30
2018-06-02T06:00:56.955Z,19.40
2018-06-02T06:03:25.330Z,19.40
2018-06-02T06:05:53.572Z,19.40
2018-06-02T06:08:21.825Z,19.40
2018-06-02T06:10:50.667Z,19.40
2018-06-02T06:13:18.908Z,19.40
2018-06-02T06:15:47.157Z,19.40
2018-06-02T06:18:16.188Z,19.50
2018-06-02T06:20:44.441Z,19.50
2018-06-02T06:23:13.456Z,19.60
2018-06-02T06:25:41.840Z,19.50
2018-06-02T06:28:10.092Z,19.60
2018-06-02T06:30:38.342Z,19.60
2018-06-02T06:33:07.856Z,19.60
2018-06-02T06:35:36.088Z,19.60
2018-06-02T06:38:04.344Z,19.70
2018-06-02T06:40:32.625Z,19.80
2018-06-02T06:43:00.869Z,20.00
2018-06-02T06:45:29.110Z,20.10
2018-06-02T06:47:57.388Z,20.10
2018-06-02T06:50:25.636Z,20.10
2018-06-02T06:52:53.876Z,20.10
2018-06-02T06:55:22.405Z,20.20
2018-06-02T06:57:50.660Z,20.20
2018-06-02T07:00:18.921Z,20.10
2018-06-02T07:02:47.835Z,20.10
2018-06-02T07:05:16.080Z,20.10
2018-06-02T07:07:44.322Z,20.20
2018-06-02T07:10:12.592Z,20.30
2018-06-02T07:12:40.840Z,20.30
2018-06-02T07:15:09.249Z,20.40
2018-06-02T07:17:37.813Z,20.50
2018-06-02T07:20:06.057Z,20.50
2018-06-02T07:22:34.300Z,20.50
2018-06-02T07:25:02.768Z,20.50
2018-06-02T07:27:31.045Z,20.50
2018-06-02T07:29:59.256Z,20.60
2018-06-02T07:32:28.289Z,20.50
2018-06-02T07:34:56.537Z,20.50
2018-06-02T07:37:24.784Z,20.50
2018-06-02T07:39:53.657Z,20.50
2018-06-02T07:42:21.891Z,20.60
2018-06-02T07:44:50.402Z,20.70
2018-06-02T07:47:18.657Z,20.70
2018-06-02T07:49:46.920Z,20.70
2018-06-02T07:52:15.146Z,20.70
2018-06-02T07:54:43.415Z,20.70
2018-06-02T07:57:11.807Z,20.70
2018-06-02T07:59:40.049Z,20.80
2018-06-02T08:02:08.694Z,20.80
2018-06-02T08:04:37.289Z,20.80
2018-06-02T08:07:06.304Z,20.90
2018-06-02T08:09:34.583Z,20.90
2018-06-02T08:12:02.845Z,21.00
2018-06-02T08:14:31.088Z,21.00
2018-06-02T08:16:59.354Z,21.00
2018-06-02T08:19:27.600Z,21.10
2018-06-02T08:21:55.908Z,21.30
2018-06-02T08:24:24.673Z,21.40
2018-06-02T08:26:53.174Z,21.50
2018-06-02T08:29:21.490Z,21.60
2018-06-02T08:31:49.769Z,21.80
2018-06-02T08:34:18.925Z,22.00
2018-06-02T08:36:47.168Z,22.00
2018-06-02T08:39:15.822Z,22.10
2018-06-02T08:41:44.848Z,22.10
2018-06-02T08:44:13.093Z,22.10
2018-06-02T08:46:41.429Z,22.20
2018-06-02T08:49:09.676Z,22.20
2018-06-02T08:51:37.994Z,22.20
2018-06-02T08:54:06.272Z,22.20
2018-06-02T08:56:34.521Z,22.20
2018-06-02T08:59:02.811Z,22.30
2018-06-02T09:01:31.231Z,22.40
2018-06-02T09:04:00.252Z,22.50
2018-06-02T09:06:28.889Z,22.40
2018-06-02T09:08:57.577Z,22.60
2018-06-02T09:11:25.944Z,22.70
2018-06-02T09:13:54.349Z,22.90
2018-06-02T09:16:22.618Z,23.00
2018-06-02T09:18:52.381Z,23.10
2018-06-02T09:21:20.621Z,23.10
2018-06-02T09:23:48.897Z,23.20
2018-06-02T09:26:17.144Z,23.40
2018-06-02T09:28:45.413Z,23.40
2018-06-02T09:31:13.993Z,23.30
2018-06-02T09:33:43.205Z,23.20
2018-06-02T09:36:11.463Z,23.10
2018-06-02T09:38:39.745Z,23.20
2018-06-02T09:41:08.047Z,23.40
2018-06-02T09:43:36.424Z,23.50
2018-06-02T09:46:04.842Z,23.50
2018-06-02T09:48:33.844Z,23.60
2018-06-02T09:51:02.088Z,23.60
2018-06-02T09:53:30.932Z,23.70
2018-06-02T09:55:59.192Z,23.90
2018-06-02T09:58:27.501Z,24.10
2018-06-02T10:00:55.772Z,24.10
2018-06-02T10:03:24.163Z,24.20
2018-06-02T10:05:52.432Z,24.40
2018-06-02T10:08:20.921Z,24.40
2018-06-02T10:10:49.160Z,24.40
2018-06-02T10:13:17.580Z,24.50
2018-06-02T10:15:46.035Z,24.60
2018-06-02T10:18:14.337Z,24.80
2018-06-02T10:20:42.582Z,24.80
2018-06-02T10:23:12.048Z,24.70
2018-06-02T10:25:42.439Z,24.80
2018-06-02T10:28:10.674Z,24.80
2018-06-02T10:30:39.960Z,24.90
2018-06-02T10:33:08.229Z,24.90
2018-06-02T10:35:36.566Z,24.90
2018-06-02T10:38:04.876Z,24.90
2018-06-02T10:40:33.138Z,24.90
2018-06-02T10:43:01.377Z,25.00
2018-06-02T10:45:29.948Z,25.00
2018-06-02T10:47:58.733Z,25.00
2018-06-02T10:50:27.880Z,25.10
2018-06-02T10:52:56.153Z,25.10
2018-06-02T10:55:24.441Z,25.20
2018-06-02T10:57:52.898Z,25.30
2018-06-02T11:00:21.474Z,25.40
2018-06-02T11:02:49.728Z,25.40
2018-06-02T11:05:17.977Z,25.40
2018-06-02T11:07:46.414Z,25.30
2018-06-02T11:10:14.648Z,25.30
2018-06-02T11:12:43.673Z,25.10
2018-06-02T11:15:12.004Z,25.10
2018-06-02T11:17:41.044Z,26.10
2018-06-02T11:20:09.286Z,26.10
2018-06-02T11:22:38.193Z,27.40
2018-06-02T11:25:07.193Z,28.40
2018-06-02T11:27:35.445Z,28.30
2018-06-02T11:30:04.493Z,26.70
2018-06-02T11:32:32.740Z,26.70
2018-06-02T11:35:00.995Z,26.20
2018-06-02T11:37:30.037Z,25.80
2018-06-02T11:39:58.293Z,25.80
2018-06-02T11:42:26.624Z,25.70
2018-06-02T11:44:54.936Z,25.70
2018-06-02T11:47:23.193Z,25.70
2018-06-02T11:49:52.206Z,26.20
2018-06-02T11:52:20.492Z,26.20
2018-06-02T11:54:48.738Z,26.80
2018-06-02T11:57:16.988Z,27.50
2018-06-02T11:59:45.370Z,29.20
2018-06-02T12:02:13.670Z,30.50
2018-06-02T12:04:42.794Z,32.20
2018-06-02T12:07:11.405Z,32.10
2018-06-02T12:09:40.195Z,33.20
2018-06-02T12:12:08.478Z,33.70
2018-06-02T12:14:36.780Z,34.10
2018-06-02T12:17:05.116Z,35.00
2018-06-02T12:19:33.712Z,35.60
2018-06-02T12:22:02.402Z,35.50
2018-06-02T12:24:32.736Z,35.60
2018-06-02T12:27:01.001Z,35.90
2018-06-02T12:29:29.412Z,35.90
2018-06-02T12:31:57.874Z,34.90
2018-06-02T12:34:26.248Z,34.20
2018-06-02T12:36:54.537Z,34.50
2018-06-02T12:39:23.013Z,35.50
2018-06-02T12:41:51.411Z,36.10
2018-06-02T12:44:19.798Z,37.00
2018-06-02T12:46:48.851Z,38.20
2018-06-02T12:49:17.101Z,38.20
2018-06-02T12:51:45.435Z,38.40
2018-06-02T12:54:13.914Z,38.10
2018-06-02T12:56:42.163Z,38.20
2018-06-02T12:59:11.608Z,38.40
2018-06-02T13:01:40.689Z,39.10
2018-06-02T13:04:10.035Z,39.10
2018-06-02T13:06:38.316Z,38.50
2018-06-02T13:09:07.873Z,38.20
2018-06-02T13:11:36.132Z,38.30
2018-06-02T13:14:04.708Z,38.10
2018-06-02T13:16:32.952Z,37.70
2018-06-02T13:19:01.384Z,37.40
2018-06-02T13:21:29.772Z,37.50
2018-06-02T13:23:58.020Z,37.40
2018-06-02T13:26:26.265Z,37.90
2018-06-02T13:28:55.086Z,38.70
2018-06-02T13:31:23.310Z,39.40
2018-06-02T13:33:52.367Z,40.40
2018-06-02T13:36:20.941Z,40.40
2018-06-02T13:38:49.531Z,41.20
2018-06-02T13:41:18.251Z,41.70
2018-06-02T13:43:46.901Z,40.70
2018-06-02T13:46:15.645Z,39.60
2018-06-02T13:48:45.133Z,39.70
2018-06-02T13:51:13.401Z,40.50
2018-06-02T13:53:42.413Z,41.40
2018-06-02T13:56:11.540Z,41.40
2018-06-02T13:58:39.868Z,41.40
2018-06-02T14:01:08.880Z,40.10
2018-06-02T14:03:38.037Z,39.40
2018-06-02T14:06:06.305Z,39.40
2018-06-02T14:08:35.721Z,39.90
2018-06-02T14:11:03.965Z,40.60
2018-06-02T14:13:32.296Z,40.10
2018-06-02T14:16:00.553Z,38.50
2018-06-02T14:18:28.935Z,37.40
2018-06-02T14:20:57.398Z,37.10
2018-06-02T14:23:26.605Z,36.90
2018-06-02T14:25:55.908Z,36.60
2018-06-02T14:28:24.328Z,36.30
2018-06-02T14:30:53.612Z,36.70
2018-06-02T14:33:21.964Z,36.70
2018-06-02T14:35:50.376Z,37.10
2018-06-02T14:38:19.523Z,37.70
2018-06-02T14:40:47.775Z,37.70
2018-06-02T14:43:16.266Z,37.00
2018-06-02T14:45:44.510Z,36.40
2018-06-02T14:48:14.756Z,37.40
2018-06-02T14:50:45.881Z,38.50
2018-06-02T14:53:16.068Z,39.60
2018-06-02T14:55:44.506Z,39.60
2018-06-02T14:58:12.827Z,40.60
2018-06-02T15:00:41.086Z,41.30
2018-06-02T15:03:09.336Z,41.90
2018-06-02T15:05:38.044Z,42.10
2018-06-02T15:08:06.343Z,41.80
2018-06-02T15:10:34.726Z,40.30
2018-06-02T15:13:03.128Z,39.60
2018-06-02T15:15:33.015Z,40.70
2018-06-02T15:18:01.393Z,40.60
2018-06-02T15:20:29.805Z,41.10
2018-06-02T15:22:59.072Z,41.50
2018-06-02T15:25:28.421Z,41.50
2018-06-02T15:27:57.525Z,39.40
2018-06-02T15:30:25.781Z,39.30
2018-06-02T15:32:54.811Z,37.90
2018-06-02T15:35:23.160Z,37.80
2018-06-02T15:37:51.479Z,37.20
2018-06-02T15:40:20.047Z,37.50
2018-06-02T15:42:48.353Z,38.50
2018-06-02T15:45:16.632Z,39.30
2018-06-02T15:47:45.018Z,39.90
2018-06-02T15:50:13.478Z,40.10
2018-06-02T15:52:41.781Z,40.50
2018-06-02T15:55:10.241Z,40.60
2018-06-02T15:57:38.608Z,41.00
2018-06-02T16:00:07.003Z,41.00
2018-06-02T16:02:35.342Z,40.70
2018-06-02T16:05:03.745Z,40.60
2018-06-02T16:07:32.227Z,40.50
2018-06-02T16:10:01.856Z,39.30
2018-06-02T16:12:30.193Z,37.60
2018-06-02T16:14:58.463Z,36.40
2018-06-02T16:17:27.504Z,34.70
2018-06-02T16:19:57.972Z,34.70
2018-06-02T16:22:27.123Z,33.80
2018-06-02T16:24:55.816Z,33.70
2018-06-02T16:27:24.070Z,33.40
2018-06-02T16:29:52.429Z,33.30
2018-06-02T16:32:20.752Z,34.30
2018-06-02T16:34:49.088Z,35.90
2018-06-02T16:37:17.509Z,37.20
2018-06-02T16:39:45.893Z,37.50
2018-06-02T16:42:14.164Z,38.00
2018-06-02T16:44:42.444Z,38.30
2018-06-02T16:47:10.721Z,38.60
2018-06-02T16:49:39.128Z,38.90
2018-06-02T16:52:08.240Z,39.20
2018-06-02T16:54:36.508Z,39.20
2018-06-02T16:57:05.845Z,39.10
2018-06-02T16:59:34.474Z,39.10
2018-06-02T17:02:02.838Z,39.30
2018-06-02T17:04:31.252Z,39.60
2018-06-02T17:07:00.276Z,39.40
2018-06-02T17:09:28.589Z,39.40
2018-06-02T17:11:56.882Z,39.20
2018-06-02T17:14:25.349Z,39.10
2018-06-02T17:16:54.140Z,38.90
2018-06-02T17:19:22.497Z,38.80
2018-06-02T17:21:50.763Z,38.60
2018-06-02T17:24:19.191Z,38.60
2018-06-02T17:26:51.741Z,38.50
2018-06-02T17:29:19.977Z,38.60
2018-06-02T17:31:48.309Z,38.80
2018-06-02T17:34:16.774Z,38.80
2018-06-02T17:36:45.060Z,38.90
2018-06-02T17:40:03.281Z,38.90
2018-06-02T17:42:32.601Z,38.70
2018-06-02T17:45:02.161Z,38.40
2018-06-02T17:50:00.574Z,37.90
2018-06-02T17:52:29.915Z,37.90
2018-06-02T17:54:59.144Z,37.90
2018-06-02T17:57:28.367Z,37.50
2018-06-02T17:59:58.739Z,37.20
2018-06-02T18:02:28.097Z,37.00
2018-06-02T18:04:57.604Z,37.00
2018-06-02T18:07:26.973Z,36.50
2018-06-02T18:09:56.851Z,35.70
2018-06-02T18:12:26.083Z,34.80
2018-06-02T18:14:55.326Z,34.10
2018-06-02T18:17:24.728Z,33.50
2018-06-02T18:19:55.461Z,32.90
2018-06-02T18:22:26.781Z,32.50
2018-06-02T18:24:56.325Z,32.10
2018-06-02T18:27:25.602Z,31.70
2018-06-02T18:29:55.941Z,31.50
2018-06-02T18:32:25.410Z,31.20
2018-06-02T18:34:54.738Z,31.00
2018-06-02T18:37:25.277Z,30.80
2018-06-02T18:39:54.572Z,30.60
2018-06-02T18:42:23.861Z,30.40
2018-06-02T18:44:53.172Z,30.20
2018-06-02T18:47:24.009Z,30.00
2018-06-02T18:49:54.572Z,29.90
2018-06-02T18:52:23.805Z,29.70
2018-06-02T18:54:53.129Z,29.60
2018-06-02T18:57:22.699Z,29.50
2018-06-02T18:59:51.948Z,29.40
2018-06-02T19:02:21.301Z,29.30
2018-06-02T19:04:50.807Z,29.20
2018-06-02T19:07:20.307Z,29.10
2018-06-02T19:09:50.776Z,29.10
2018-06-02T19:12:20.156Z,29.00
2018-06-02T19:14:49.708Z,29.00
2018-06-02T19:17:19.600Z,28.90
2018-06-02T19:19:48.909Z,28.80
2018-06-02T19:22:19.412Z,28.70
2018-06-02T19:27:18.145Z,28.50
2018-06-02T19:29:47.649Z,28.50
2018-06-02T19:32:16.952Z,28.40
2018-06-02T19:34:46.274Z,28.40
2018-06-02T19:37:15.805Z,28.40
2018-06-02T19:39:45.194Z,28.30
2018-06-02T19:42:15.762Z,28.30
2018-06-02T19:44:45.272Z,28.20
2018-06-02T19:47:14.648Z,28.20
2018-06-02T19:49:44.433Z,28.10
2018-06-02T19:52:13.688Z,28.10
2018-06-02T19:54:43.120Z,28.00
2018-06-02T19:57:12.437Z,27.90
2018-06-02T19:59:41.721Z,27.90
2018-06-02T20:02:11.022Z,27.80
2018-06-02T20:04:40.352Z,27.80
2018-06-02T20:07:10.844Z,27.70
2018-06-02T20:09:40.045Z,27.60
2018-06-02T20:12:09.351Z,27.50
2018-06-02T20:14:38.745Z,27.40
2018-06-02T20:17:09.297Z,27.40
2018-06-02T20:19:38.606Z,27.30
2018-06-02T20:22:07.832Z,27.10
2018-06-02T20:24:37.053Z,27.00
2018-06-02T20:27:06.280Z,27.00
2018-06-02T20:29:35.801Z,27.00
2018-06-02T20:32:05.117Z,27.00
2018-06-02T20:34:34.504Z,26.90
2018-06-02T20:37:03.991Z,26.90
2018-06-02T20:39:33.291Z,26.80
2018-06-02T20:42:02.610Z,26.70
2018-06-02T20:44:31.866Z,26.60
2018-06-02T20:47:02.356Z,26.60
2018-06-02T20:49:31.740Z,26.50
2018-06-02T20:52:01.083Z,26.40
2018-06-02T20:54:30.625Z,26.20
2018-06-02T20:57:00.163Z,26.20
2018-06-02T20:59:30.029Z,26.10
2018-06-02T21:01:59.437Z,26.10
2018-06-02T21:04:28.773Z,26.10
2018-06-02T21:06:58.052Z,26.00
2018-06-02T21:09:27.361Z,25.90
2018-06-02T21:14:27.232Z,25.70
2018-06-02T21:16:56.456Z,25.60
2018-06-02T21:19:29.968Z,25.60
2018-06-02T21:21:59.461Z,25.50
2018-06-02T21:24:29.260Z,25.40
2018-06-02T21:26:58.589Z,25.60
2018-06-02T21:32:01.594Z,25.60
2018-06-02T21:34:31.537Z,25.30
2018-06-02T21:37:01.049Z,25.10
2018-06-02T21:39:30.605Z,25.00
2018-06-02T21:42:00.900Z,25.00
2018-06-02T21:44:30.105Z,25.00
2018-06-02T21:46:59.705Z,25.00
2018-06-02T21:49:28.961Z,24.90
2018-06-02T21:51:58.154Z,24.80
2018-06-02T21:54:27.810Z,24.90
2018-06-02T21:56:57.385Z,24.80
2018-06-02T21:59:26.692Z,24.70
2018-06-02T22:01:56.485Z,24.70
2018-06-02T22:04:25.797Z,24.60
2018-06-02T22:06:55.238Z,24.50
2018-06-02T22:09:24.477Z,24.50
2018-06-02T22:11:53.864Z,24.50
2018-06-02T22:14:23.276Z,24.40
2018-06-02T22:16:52.637Z,24.50
2018-06-02T22:19:21.904Z,24.40
2018-06-02T22:21:51.378Z,24.40
2018-06-02T22:24:21.045Z,24.30
2018-06-02T22:26:50.410Z,24.20
2018-06-02T22:31:48.436Z,23.90
2018-06-02T22:34:17.993Z,23.80
2018-06-02T22:36:47.237Z,23.70
2018-06-02T22:39:16.950Z,23.70
2018-06-02T22:41:46.398Z,23.70
2018-06-02T22:44:16.177Z,23.60
2018-06-02T22:46:45.678Z,23.60
2018-06-02T22:49:15.090Z,23.60
2018-06-02T22:51:55.313Z,23.60
2018-06-02T22:54:24.654Z,23.60
2018-06-02T22:56:54.073Z,23.70
2018-06-02T22:59:23.432Z,23.70
2018-06-02T23:01:52.900Z,23.50
2018-06-02T23:04:22.145Z,23.40
2018-06-02T23:06:52.677Z,23.40
2018-06-02T23:09:21.936Z,23.20
2018-06-02T23:11:51.140Z,23.10
2018-06-02T23:14:20.396Z,23.00
2018-06-02T23:16:49.601Z,22.90
2018-06-02T23:19:18.789Z,23.00
2018-06-02T23:21:48.006Z,23.10
2018-06-02T23:24:17.776Z,23.10
2018-06-02T23:26:46.968Z,23.00
2018-06-02T23:29:16.999Z,22.90
2018-06-02T23:31:46.411Z,22.90
2018-06-02T23:34:15.884Z,22.90
2018-06-02T23:36:45.121Z,22.90
2018-06-02T23:39:14.321Z,22.80
2018-06-02T23:41:43.522Z,22.80
2018-06-02T23:44:12.877Z,22.70
2018-06-02T23:46:42.057Z,22.50
2018-06-02T23:49:11.279Z,22.50
2018-06-02T23:51:41.005Z,22.40
2018-06-02T23:54:10.565Z,22.40
2018-06-02T23:56:39.761Z,22.40
2018-06-02T23:59:08.982Z,22.40
